Time;durP1;ratioP1;P1;durP2;ratioP2;P2;SDS_P1;SDS_P2;PMS_P1;PMS_P2;Temp;Humidity;BMP_temperature;BMP_pressure;BME280_temperature;BME280_humidity;BME280_pressure;Samples;Min_cycle;Max_cycle;Signal;HPM_P1;HPM_P2
2022/07/12 00:01:10;;;;;;;;;;;13.70;99.90;;;;;;4997767;28;19928;-84
2022/07/12 00:03:36;;;;;;;;;;;13.70;99.90;;;;;;5000472;28;20012;-84
2022/07/12 00:06:20;;;;;;;;;;;13.70;99.90;;;;;;4977849;28;19929;-84
2022/07/12 00:08:46;;;;;;;;;;;13.70;99.90;;;;;;4995061;28;20718;-84
2022/07/12 00:11:11;;;;;;;;;;;13.60;99.90;;;;;;4996959;28;19940;-84
2022/07/12 00:13:37;;;;;;;;;;;13.60;99.90;;;;;;4997386;28;19929;-84
2022/07/12 00:16:03;;;;;;;;;;;13.60;99.90;;;;;;4996748;28;20879;-85
2022/07/12 00:18:29;;;;;;;;;;;13.50;99.90;;;;;;4999930;28;19959;-84
2022/07/12 00:20:55;;;;;;;;;;;13.50;99.90;;;;;;5000583;28;20493;-84
2022/07/12 00:23:20;;;;;;;;;;;13.50;99.90;;;;;;5003828;28;20467;-84
2022/07/12 00:26:04;;;;;;;;;;;13.60;99.90;;;;;;5002800;28;20516;-84
2022/07/12 00:28:30;;;;;;;;;;;13.70;99.90;;;;;;5001888;28;20740;-84
2022/07/12 00:30:56;;;;;;;;;;;13.60;99.90;;;;;;4981619;28;20096;-84
2022/07/12 00:33:21;;;;;;;;;;;13.60;99.90;;;;;;5002343;28;19929;-83
2022/07/12 00:35:47;;;;;;;;;;;13.60;99.90;;;;;;4995972;28;19940;-84
2022/07/12 00:38:13;;;;;;;;;;;13.40;99.90;;;;;;5001724;28;20739;-84
2022/07/12 00:40:38;;;;;;;;;;;13.40;99.90;;;;;;5002421;28;20469;-83
2022/07/12 00:43:04;;;;;;;;;;;13.40;99.90;;;;;;5003002;28;19983;-84
2022/07/12 00:45:30;;;;;;;;;;;13.40;99.90;;;;;;4999732;28;19933;-84
2022/07/12 00:47:56;;;;;;;;;;;13.30;99.90;;;;;;5007026;28;19982;-84
2022/07/12 00:50:22;;;;;;;;;;;13.30;99.90;;;;;;5001298;28;19979;-84
2022/07/12 00:53:03;;;;;;;;;;;13.30;99.90;;;;;;5003589;28;20572;-83
2022/07/12 00:55:28;;;;;;;;;;;13.40;99.90;;;;;;5000361;28;20432;-84
2022/07/12 00:57:54;;;;;;;;;;;13.30;99.90;;;;;;4986417;28;19929;-83
2022/07/12 01:00:21;;;;;;;;;;;13.40;99.90;;;;;;5001654;28;19933;-83
2022/07/12 01:02:47;;;;;;;;;;;13.40;99.90;;;;;;5003648;28;19997;-84
2022/07/12 01:05:13;;;;;;;;;;;13.40;99.90;;;;;;5010618;28;19932;-83
2022/07/12 01:07:39;;;;;;;;;;;13.50;99.90;;;;;;5013223;28;19929;-83
2022/07/12 01:10:06;;;;;;;;;;;13.40;99.90;;;;;;5016952;28;20428;-83
2022/07/12 01:12:32;;;;;;;;;;;13.40;99.90;;;;;;5015113;28;19999;-84
2022/07/12 01:14:58;;;;;;;;;;;13.30;99.90;;;;;;5016650;28;19963;-84
2022/07/12 01:17:25;;;;;;;;;;;13.20;99.90;;;;;;4998896;28;19976;-84
2022/07/12 01:19:52;;;;;;;;;;;13.10;99.90;;;;;;5017126;28;19929;-84
2022/07/12 01:22:18;;;;;;;;;;;13.10;99.90;;;;;;5010228;28;20341;-84
2022/07/12 01:24:44;;;;;;;;;;;13.10;99.90;;;;;;4992930;28;19928;-84
2022/07/12 01:27:10;;;;;;;;;;;13.20;99.90;;;;;;5016815;28;20107;-84
2022/07/12 01:29:36;;;;;;;;;;;13.00;99.90;;;;;;5013309;28;20614;-84
2022/07/12 01:34:48;;;;;;;;;;;13.10;99.90;;;;;;5019135;28;20015;-83
2022/07/12 01:37:14;;;;;;;;;;;13.00;99.90;;;;;;5014913;28;19929;-83
2022/07/12 01:39:40;;;;;;;;;;;12.80;99.90;;;;;;4999585;28;20271;-84
2022/07/12 01:42:06;;;;;;;;;;;12.70;99.90;;;;;;5016473;28;20686;-85
2022/07/12 01:44:32;;;;;;;;;;;12.60;99.90;;;;;;5017703;28;19994;-84
2022/07/12 01:47:00;;;;;;;;;;;12.60;99.90;;;;;;5018690;28;19929;-84
2022/07/12 01:49:25;;;;;;;;;;;12.60;99.90;;;;;;4992772;28;20119;-84
2022/07/12 01:51:51;;;;;;;;;;;12.50;99.90;;;;;;4996750;28;20603;-84
2022/07/12 01:54:17;;;;;;;;;;;12.50;99.90;;;;;;4998576;28;19936;-84
2022/07/12 01:56:43;;;;;;;;;;;12.50;99.90;;;;;;5013988;28;20394;-84
2022/07/12 01:59:09;;;;;;;;;;;12.40;99.90;;;;;;5017389;28;19982;-84
2022/07/12 02:01:37;;;;;;;;;;;12.50;99.90;;;;;;4995106;28;19929;-84
2022/07/12 02:04:03;;;;;;;;;;;12.50;99.90;;;;;;4998756;28;20795;-84
2022/07/12 02:06:29;;;;;;;;;;;12.50;99.90;;;;;;5014992;28;19933;-84
2022/07/12 02:08:55;;;;;;;;;;;12.50;99.90;;;;;;5015587;28;20039;-84
2022/07/12 02:11:21;;;;;;;;;;;12.40;99.90;;;;;;5014846;28;19936;-84
2022/07/12 02:13:47;;;;;;;;;;;12.30;99.90;;;;;;4997953;28;20057;-84
2022/07/12 02:16:12;;;;;;;;;;;12.30;99.90;;;;;;4999419;28;19933;-84
2022/07/12 02:18:38;;;;;;;;;;;12.20;99.90;;;;;;5014183;28;19935;-84
2022/07/12 02:21:04;;;;;;;;;;;12.10;99.90;;;;;;5016016;28;20027;-84
2022/07/12 02:23:29;;;;;;;;;;;12.00;99.90;;;;;;5018178;28;19929;-84
2022/07/12 02:25:55;;;;;;;;;;;12.00;99.90;;;;;;5013501;28;19936;-84
2022/07/12 02:28:21;;;;;;;;;;;11.90;99.90;;;;;;4966582;28;19929;-84
2022/07/12 02:30:46;;;;;;;;;;;11.80;99.90;;;;;;5012297;28;19940;-84
2022/07/12 02:33:15;;;;;;;;;;;11.90;99.90;;;;;;5015458;28;19987;-84
2022/07/12 02:35:41;;;;;;;;;;;11.90;99.90;;;;;;5011814;28;19944;-85
2022/07/12 02:38:07;;;;;;;;;;;12.00;99.90;;;;;;5015386;28;19929;-85
2022/07/12 02:43:17;;;;;;;;;;;12.00;99.90;;;;;;5002181;28;19940;-84
2022/07/12 02:45:42;;;;;;;;;;;11.90;99.90;;;;;;5015255;28;19933;-84
2022/07/12 02:48:10;;;;;;;;;;;11.90;99.90;;;;;;4998601;28;19944;-84
2022/07/12 02:50:37;;;;;;;;;;;11.90;99.90;;;;;;5002885;28;20976;-84
2022/07/12 02:53:03;;;;;;;;;;;11.90;99.90;;;;;;5012113;28;19933;-84
2022/07/12 02:55:29;;;;;;;;;;;11.90;99.90;;;;;;5018583;28;19990;-84
2022/07/12 02:57:54;;;;;;;;;;;11.90;99.90;;;;;;5011160;28;19929;-84
2022/07/12 03:00:20;;;;;;;;;;;11.80;99.90;;;;;;5016426;28;19933;-84
2022/07/12 03:02:45;;;;;;;;;;;11.80;99.90;;;;;;5013989;28;20351;-84
2022/07/12 03:05:11;;;;;;;;;;;11.90;99.90;;;;;;5012291;28;19925;-84
2022/07/12 03:07:37;;;;;;;;;;;11.80;99.90;;;;;;4996697;28;20839;-84
2022/07/12 03:10:04;;;;;;;;;;;11.80;99.90;;;;;;5030731;28;19951;-85
2022/07/12 03:12:29;;;;;;;;;;;11.80;99.90;;;;;;5013751;28;19928;-84
2022/07/12 03:14:55;;;;;;;;;;;11.80;99.90;;;;;;4994375;28;19960;-84
2022/07/12 03:17:21;;;;;;;;;;;11.80;99.90;;;;;;5013469;28;19964;-84
2022/07/12 03:19:47;;;;;;;;;;;11.70;99.90;;;;;;4997531;28;19987;-85
2022/07/12 03:22:12;;;;;;;;;;;11.70;99.90;;;;;;5013104;28;20465;-85
2022/07/12 03:24:38;;;;;;;;;;;11.60;99.90;;;;;;5009159;28;19929;-84
2022/07/12 03:27:04;;;;;;;;;;;11.60;99.90;;;;;;5007522;28;19929;-85
2022/07/12 03:29:29;;;;;;;;;;;11.80;99.90;;;;;;5009584;28;19929;-85
2022/07/12 03:31:55;;;;;;;;;;;11.80;99.90;;;;;;4990381;28;19929;-84
2022/07/12 03:34:21;;;;;;;;;;;11.80;99.90;;;;;;4996913;28;20533;-85
2022/07/12 03:36:46;;;;;;;;;;;11.70;99.90;;;;;;5012307;28;19934;-84
2022/07/12 03:39:12;;;;;;;;;;;11.70;99.90;;;;;;5010049;28;19974;-84
2022/07/12 03:41:37;;;;;;;;;;;11.70;99.90;;;;;;5005446;28;19979;-84
2022/07/12 03:44:03;;;;;;;;;;;11.70;99.90;;;;;;5015301;28;19929;-84
2022/07/12 03:46:29;;;;;;;;;;;11.70;99.90;;;;;;5012738;28;19929;-84
2022/07/12 03:48:55;;;;;;;;;;;11.70;99.90;;;;;;5009160;28;19952;-84
2022/07/12 03:51:21;;;;;;;;;;;11.80;99.90;;;;;;5007524;28;19990;-84
2022/07/12 03:53:47;;;;;;;;;;;11.80;99.90;;;;;;5011011;28;19937;-85
2022/07/12 03:57:13;;;;;;;;;;;11.80;99.90;;;;;;5013249;28;20309;-84
2022/07/12 03:58:58;;;;;;;;;;;11.80;99.90;;;;;;5012475;28;19933;-84
2022/07/12 04:01:24;;;;;;;;;;;11.80;99.90;;;;;;4993218;28;19929;-84
2022/07/12 04:03:49;;;;;;;;;;;11.80;99.90;;;;;;5010717;28;19972;-84
2022/07/12 04:06:15;;;;;;;;;;;11.90;99.90;;;;;;5010694;28;20077;-84
2022/07/12 04:08:41;;;;;;;;;;;11.90;99.90;;;;;;5010007;28;19951;-84
2022/07/12 04:11:07;;;;;;;;;;;12.10;99.90;;;;;;5009660;28;19933;-84
2022/07/12 04:13:33;;;;;;;;;;;12.10;99.90;;;;;;5008500;28;19928;-86
2022/07/12 04:15:59;;;;;;;;;;;12.20;99.90;;;;;;5013651;28;19940;-86
2022/07/12 04:18:25;;;;;;;;;;;12.20;99.90;;;;;;4990794;28;19929;-84
2022/07/12 04:20:50;;;;;;;;;;;12.20;99.90;;;;;;5013566;28;19929;-85
2022/07/12 04:23:16;;;;;;;;;;;12.20;99.90;;;;;;5015348;28;19936;-85
2022/07/12 04:25:42;;;;;;;;;;;12.30;99.90;;;;;;4977973;28;19932;-84
2022/07/12 04:28:07;;;;;;;;;;;12.30;99.90;;;;;;5012734;28;20394;-84
2022/07/12 04:30:33;;;;;;;;;;;12.30;99.90;;;;;;5010407;28;19976;-85
2022/07/12 04:32:59;;;;;;;;;;;12.40;99.90;;;;;;4995029;28;20745;-85
2022/07/12 04:35:24;;;;;;;;;;;12.50;99.90;;;;;;5010497;28;20464;-85
2022/07/12 04:37:50;;;;;;;;;;;12.60;99.90;;;;;;5012670;28;19980;-85
2022/07/12 04:40:15;;;;;;;;;;;12.70;99.90;;;;;;5012415;28;19983;-84
2022/07/12 04:42:42;;;;;;;;;;;12.80;99.90;;;;;;5007668;28;19976;-85
2022/07/12 04:45:08;;;;;;;;;;;12.80;99.90;;;;;;5009942;28;19999;-85
2022/07/12 04:47:37;;;;;;;;;;;12.80;99.90;;;;;;5009479;28;20414;-85
2022/07/12 04:50:06;;;;;;;;;;;12.90;99.90;;;;;;5010175;28;20915;-86
2022/07/12 04:52:33;;;;;;;;;;;13.00;99.90;;;;;;5014741;28;19929;-85
2022/07/12 04:54:58;;;;;;;;;;;13.70;99.90;;;;;;5012806;28;19936;-85
2022/07/12 04:57:25;;;;;;;;;;;13.60;99.90;;;;;;4977080;28;19924;-85
2022/07/12 04:59:51;;;;;;;;;;;14.10;99.90;;;;;;5007556;28;19991;-85
2022/07/12 05:02:17;;;;;;;;;;;15.40;99.90;;;;;;5012365;28;21192;-85
2022/07/12 05:04:42;;;;;;;;;;;15.60;99.90;;;;;;5014254;28;20016;-86
2022/07/12 05:07:08;;;;;;;;;;;16.20;99.90;;;;;;5016269;28;19929;-86
2022/07/12 05:09:34;;;;;;;;;;;17.70;99.90;;;;;;5012337;28;19929;-86
2022/07/12 05:11:59;;;;;;;;;;;18.80;99.90;;;;;;5020719;28;20421;-85
2022/07/12 05:14:25;;;;;;;;;;;19.70;99.90;;;;;;5013954;28;20082;-86
2022/07/12 05:16:51;;;;;;;;;;;20.90;99.90;;;;;;5017628;28;19929;-88
2022/07/12 05:19:16;;;;;;;;;;;21.80;99.90;;;;;;4993908;28;19929;-86
2022/07/12 05:21:42;;;;;;;;;;;21.30;99.90;;;;;;5020201;28;19940;-87
2022/07/12 05:24:08;;;;;;;;;;;22.50;99.90;;;;;;5014835;28;20406;-87
2022/07/12 05:26:34;;;;;;;;;;;22.90;99.90;;;;;;5016416;28;19975;-87
2022/07/12 05:28:59;;;;;;;;;;;23.10;99.90;;;;;;5014460;28;19967;-84
2022/07/12 05:31:26;;;;;;;;;;;24.00;99.90;;;;;;5012084;28;19929;-86
2022/07/12 05:33:52;;;;;;;;;;;24.20;99.90;;;;;;5011151;28;19929;-87
2022/07/12 05:36:18;;;;;;;;;;;25.40;99.90;;;;;;5011288;28;19952;-87
2022/07/12 05:38:43;;;;;;;;;;;25.70;99.90;;;;;;5014650;28;20024;-85
2022/07/12 05:41:09;;;;;;;;;;;26.30;99.90;;;;;;5015698;28;19980;-86
2022/07/12 05:43:35;;;;;;;;;;;26.60;99.90;;;;;;5012214;28;19935;-88
2022/07/12 05:46:00;;;;;;;;;;;25.30;99.90;;;;;;4996195;28;20287;-86
2022/07/12 05:48:26;;;;;;;;;;;24.50;99.90;;;;;;4997414;28;19972;-86
2022/07/12 05:50:51;;;;;;;;;;;25.50;99.90;;;;;;5014483;28;19979;-87
2022/07/12 05:53:23;;;;;;;;;;;24.20;99.90;;;;;;5015940;28;20074;-87
2022/07/12 05:55:53;;;;;;;;;;;23.10;99.90;;;;;;5015928;28;20057;-86
2022/07/12 05:58:19;;;;;;;;;;;23.40;99.90;;;;;;5016493;28;19941;-86
2022/07/12 06:00:46;;;;;;;;;;;22.70;99.90;;;;;;5017445;28;19929;-87
2022/07/12 06:03:13;;;;;;;;;;;22.40;99.90;;;;;;5016893;28;19936;-86
2022/07/12 06:05:39;;;;;;;;;;;22.10;99.90;;;;;;5004489;28;19929;-86
2022/07/12 06:08:06;;;;;;;;;;;22.70;99.90;;;;;;5022577;28;19929;-83
2022/07/12 06:10:32;;;;;;;;;;;22.70;99.90;;;;;;5017550;28;19929;-85
2022/07/12 06:12:57;;;;;;;;;;;23.00;99.90;;;;;;4998533;28;19933;-87
2022/07/12 06:15:24;;;;;;;;;;;23.30;99.90;;;;;;5012457;28;19933;-85
2022/07/12 06:17:50;;;;;;;;;;;23.20;99.90;;;;;;5017855;28;20387;-84
2022/07/12 06:20:15;;;;;;;;;;;22.50;99.90;;;;;;5019762;28;20057;-86
2022/07/12 06:22:41;;;;;;;;;;;22.90;99.90;;;;;;5033055;28;19940;-85
2022/07/12 06:25:07;;;;;;;;;;;22.20;99.90;;;;;;5020309;28;19936;-86
2022/07/12 06:27:33;;;;;;;;;;;22.50;99.90;;;;;;4997770;28;19929;-88
2022/07/12 06:29:59;;;;;;;;;;;22.60;99.90;;;;;;4994033;28;19929;-88
2022/07/12 06:32:24;;;;;;;;;;;22.80;99.90;;;;;;5010488;28;19952;-86
2022/07/12 06:34:50;;;;;;;;;;;22.20;99.90;;;;;;5010177;28;19975;-86
2022/07/12 06:37:16;;;;;;;;;;;21.40;99.90;;;;;;5014586;28;20027;-84
2022/07/12 06:39:41;;;;;;;;;;;21.60;99.90;;;;;;5012974;28;20350;-85
2022/07/12 06:42:07;;;;;;;;;;;21.40;99.90;;;;;;5015674;28;19932;-85
2022/07/12 06:44:33;;;;;;;;;;;20.80;99.90;;;;;;5020887;28;20318;-87
2022/07/12 06:46:59;;;;;;;;;;;20.80;99.90;;;;;;5011554;28;19929;-86
2022/07/12 06:49:25;;;;;;;;;;;20.30;99.90;;;;;;5015983;28;19929;-87
2022/07/12 06:51:51;;;;;;;;;;;20.20;99.90;;;;;;5017034;28;19929;-86
2022/07/12 06:54:16;;;;;;;;;;;20.20;99.90;;;;;;5014050;28;19936;-87
2022/07/12 06:56:42;;;;;;;;;;;19.90;99.90;;;;;;4997871;28;20187;-87
2022/07/12 06:59:11;;;;;;;;;;;20.20;99.90;;;;;;4995091;28;19931;-86
2022/07/12 07:01:37;;;;;;;;;;;20.20;99.90;;;;;;5011962;28;19979;-85
2022/07/12 07:04:03;;;;;;;;;;;20.40;99.90;;;;;;5011721;28;20298;-86
2022/07/12 07:06:28;;;;;;;;;;;20.70;99.90;;;;;;5018556;28;19971;-85
2022/07/12 07:08:54;;;;;;;;;;;20.70;99.90;;;;;;5031260;28;19936;-87
2022/07/12 07:11:20;;;;;;;;;;;21.20;99.90;;;;;;5013025;28;19935;-87
2022/07/12 07:13:45;;;;;;;;;;;21.50;99.90;;;;;;5010491;28;19989;-88
2022/07/12 07:16:11;;;;;;;;;;;21.70;99.90;;;;;;4998034;28;20012;-85
2022/07/12 07:18:37;;;;;;;;;;;22.00;99.90;;;;;;5015879;28;19972;-87
2022/07/12 07:21:03;;;;;;;;;;;22.10;99.90;;;;;;4998101;28;19929;-87
2022/07/12 07:23:28;;;;;;;;;;;21.70;99.90;;;;;;4978068;28;19936;-88
2022/07/12 07:25:54;;;;;;;;;;;22.10;99.90;;;;;;5013150;28;19935;-88
2022/07/12 07:28:20;;;;;;;;;;;22.40;99.90;;;;;;5017886;28;20414;-88
2022/07/12 07:30:55;;;;;;;;;;;23.10;99.90;;;;;;5010339;28;19929;-88
2022/07/12 07:33:25;;;;;;;;;;;22.90;99.90;;;;;;5018540;28;20351;-87
2022/07/12 07:35:51;;;;;;;;;;;23.30;99.90;;;;;;5015653;28;20366;-86
2022/07/12 07:38:17;;;;;;;;;;;23.30;99.90;;;;;;5018581;28;20446;-87
2022/07/12 07:40:43;;;;;;;;;;;23.50;99.90;;;;;;5015851;28;19939;-87
2022/07/12 07:43:08;;;;;;;;;;;23.60;99.90;;;;;;5017723;28;20365;-87
2022/07/12 07:45:34;;;;;;;;;;;23.50;99.90;;;;;;5007491;28;19929;-87
2022/07/12 07:48:00;;;;;;;;;;;23.70;99.90;;;;;;5017493;28;19933;-86
2022/07/12 07:50:26;;;;;;;;;;;23.70;99.90;;;;;;4999372;28;20020;-86
2022/07/12 07:52:51;;;;;;;;;;;23.70;99.90;;;;;;5012964;28;19933;-85
2022/07/12 07:55:17;;;;;;;;;;;24.00;99.90;;;;;;5028658;28;19975;-84
2022/07/12 07:57:43;;;;;;;;;;;24.50;99.90;;;;;;5011156;28;19937;-86
2022/07/12 08:00:09;;;;;;;;;;;24.50;99.90;;;;;;4992363;28;19929;-86
2022/07/12 08:02:35;;;;;;;;;;;24.50;99.90;;;;;;5016113;28;19941;-86
2022/07/12 08:05:04;;;;;;;;;;;24.80;99.90;;;;;;5006771;28;19929;-88
2022/07/12 08:07:30;;;;;;;;;;;24.80;99.90;;;;;;4993654;28;20536;-89
2022/07/12 08:09:56;;;;;;;;;;;25.00;99.90;;;;;;5009522;28;20071;-86
2022/07/12 08:12:21;;;;;;;;;;;25.00;99.90;;;;;;4978590;28;19933;-88
2022/07/12 08:14:47;;;;;;;;;;;25.00;99.90;;;;;;4981101;28;19933;-86
2022/07/12 08:17:13;;;;;;;;;;;25.10;99.90;;;;;;5001632;28;19937;-87
2022/07/12 08:19:38;;;;;;;;;;;25.20;99.90;;;;;;4995357;28;19948;-89
2022/07/12 08:22:04;;;;;;;;;;;25.10;99.90;;;;;;5000582;28;19998;-86
2022/07/12 08:24:29;;;;;;;;;;;25.30;99.90;;;;;;5000110;28;20444;-87
2022/07/12 08:26:55;;;;;;;;;;;25.50;99.90;;;;;;5001001;28;20405;-87
2022/07/12 08:29:21;;;;;;;;;;;25.40;99.90;;;;;;4984119;28;19932;-88
2022/07/12 08:31:47;;;;;;;;;;;25.40;99.90;;;;;;4980951;28;19936;-86
2022/07/12 08:34:12;;;;;;;;;;;25.60;99.90;;;;;;5000866;28;19929;-87
2022/07/12 08:36:38;;;;;;;;;;;25.70;99.90;;;;;;4997087;28;19936;-87
2022/07/12 08:39:06;;;;;;;;;;;25.70;99.90;;;;;;4983053;28;21444;-87
2022/07/12 08:41:32;;;;;;;;;;;25.70;99.90;;;;;;4989207;28;19929;-88
2022/07/12 08:43:58;;;;;;;;;;;25.70;99.90;;;;;;4984290;28;19980;-91
2022/07/12 08:46:24;;;;;;;;;;;25.60;99.90;;;;;;5006028;28;19979;-88
2022/07/12 08:48:49;;;;;;;;;;;25.80;99.90;;;;;;5002890;28;19929;-86
2022/07/12 08:51:19;;;;;;;;;;;25.90;99.90;;;;;;5004365;28;21657;-86
2022/07/12 08:53:45;;;;;;;;;;;26.20;99.90;;;;;;5002219;28;19940;-86
2022/07/12 08:56:29;;;;;;;;;;;26.20;99.90;;;;;;5006028;28;19929;-84
2022/07/12 08:59:11;;;;;;;;;;;26.10;99.90;;;;;;5005074;28;20750;-87
2022/07/12 09:01:41;;;;;;;;;;;25.90;99.90;;;;;;5006707;28;19933;-86
2022/07/12 09:04:10;;;;;;;;;;;26.00;99.90;;;;;;5010259;28;19940;-85
2022/07/12 09:06:36;;;;;;;;;;;26.30;99.90;;;;;;5006865;28;19929;-87
2022/07/12 09:09:02;;;;;;;;;;;26.30;99.90;;;;;;5001493;28;20280;-86
2022/07/12 09:11:28;;;;;;;;;;;26.40;99.90;;;;;;5003422;28;19928;-85
2022/07/12 09:13:55;;;;;;;;;;;26.60;99.90;;;;;;5004626;28;19956;-84
2022/07/12 09:16:21;;;;;;;;;;;26.50;99.90;;;;;;4986656;28;20366;-85
2022/07/12 09:18:47;;;;;;;;;;;26.60;99.90;;;;;;5003966;28;19928;-86
2022/07/12 09:21:23;;;;;;;;;;;26.60;99.90;;;;;;5003437;28;20479;-86
2022/07/12 09:23:59;;;;;;;;;;;26.60;99.90;;;;;;4985694;28;20161;-87
2022/07/12 09:26:34;;;;;;;;;;;26.50;99.90;;;;;;4999965;28;19936;-83
2022/07/12 09:29:12;;;;;;;;;;;26.60;99.90;;;;;;5005917;28;19936;-87
2022/07/12 09:37:15;;;;;;;;;;;26.80;99.90;;;;;;5001958;28;19936;-87
2022/07/12 09:39:41;;;;;;;;;;;26.80;99.90;;;;;;4990264;28;19933;-86
2022/07/12 09:42:12;;;;;;;;;;;26.90;99.90;;;;;;4985709;28;20019;-88
2022/07/12 09:44:41;;;;;;;;;;;26.90;99.90;;;;;;4998447;28;19933;-87
2022/07/12 09:47:09;;;;;;;;;;;27.10;99.90;;;;;;4984613;28;19931;-90
2022/07/12 09:49:35;;;;;;;;;;;27.20;99.90;;;;;;5003299;28;20391;-88
2022/07/12 09:52:03;;;;;;;;;;;27.20;99.90;;;;;;4979646;28;19939;-89
2022/07/12 09:54:30;;;;;;;;;;;27.30;99.90;;;;;;4990074;28;19929;-88
2022/07/12 09:56:58;;;;;;;;;;;27.50;99.90;;;;;;4986869;28;19936;-85
2022/07/12 09:59:24;;;;;;;;;;;27.60;99.90;;;;;;4989686;28;19932;-87
2022/07/12 10:01:51;;;;;;;;;;;27.80;99.90;;;;;;4995254;28;19925;-86
2022/07/12 10:04:24;;;;;;;;;;;27.70;99.90;;;;;;4997616;28;20017;-88
2022/07/12 10:06:50;;;;;;;;;;;27.60;99.90;;;;;;5001622;28;19971;-87
2022/07/12 10:09:16;;;;;;;;;;;27.40;99.90;;;;;;5000273;28;20031;-87
2022/07/12 10:11:42;;;;;;;;;;;27.30;99.90;;;;;;4998078;28;19931;-86
2022/07/12 10:14:12;;;;;;;;;;;27.10;99.90;;;;;;5006345;28;19940;-87
2022/07/12 10:16:38;;;;;;;;;;;27.00;99.90;;;;;;4988380;28;19933;-87
2022/07/12 10:19:26;;;;;;;;;;;26.90;99.90;;;;;;4984428;28;21558;-87
2022/07/12 10:21:53;;;;;;;;;;;27.30;99.90;;;;;;4968322;28;19929;-88
2022/07/12 10:24:38;;;;;;;;;;;27.40;99.90;;;;;;4983409;28;20374;-86
2022/07/12 10:27:15;;;;;;;;;;;27.50;99.90;;;;;;5002604;28;19936;-88
2022/07/12 10:29:42;;;;;;;;;;;27.60;99.90;;;;;;5010801;28;19940;-90
2022/07/12 10:32:26;;;;;;;;;;;28.10;99.90;;;;;;4995526;28;19929;-84
2022/07/12 10:35:05;;;;;;;;;;;28.40;99.90;;;;;;5005268;28;19982;-87
2022/07/12 10:37:31;;;;;;;;;;;28.60;99.90;;;;;;4999622;28;19929;-85
2022/07/12 10:40:13;;;;;;;;;;;28.60;99.90;;;;;;4986643;28;20012;-88
2022/07/12 10:42:39;;;;;;;;;;;28.10;99.90;;;;;;4976227;28;19929;-87
2022/07/12 10:45:12;;;;;;;;;;;28.00;99.90;;;;;;5001126;28;19936;-86
2022/07/12 10:47:54;;;;;;;;;;;28.50;99.90;;;;;;4998727;28;19940;-89
2022/07/12 10:50:39;;;;;;;;;;;28.70;99.90;;;;;;5001136;28;19937;-90
2022/07/12 10:53:23;;;;;;;;;;;28.10;99.90;;;;;;5003337;28;19933;-86
2022/07/12 10:56:08;;;;;;;;;;;28.60;99.90;;;;;;4998379;28;20052;-88
2022/07/12 10:58:37;;;;;;;;;;;29.10;99.90;;;;;;5001310;28;20550;-90
2022/07/12 11:01:04;;;;;;;;;;;29.40;99.90;;;;;;4999792;28;20011;-89
2022/07/12 11:03:30;;;;;;;;;;;29.10;99.90;;;;;;5002177;28;20072;-89
2022/07/12 11:06:03;;;;;;;;;;;29.20;99.90;;;;;;4973930;28;20865;-90
2022/07/12 11:08:34;;;;;;;;;;;29.20;99.90;;;;;;4988882;28;20012;-89
2022/07/12 11:11:00;;;;;;;;;;;29.10;99.90;;;;;;4999504;28;19982;-88
2022/07/12 11:13:26;;;;;;;;;;;29.50;99.90;;;;;;5001329;28;20139;-87
2022/07/12 11:15:55;;;;;;;;;;;29.40;99.90;;;;;;5002420;28;20678;-88
2022/07/12 11:18:31;;;;;;;;;;;29.10;99.90;;;;;;5005952;28;19929;-85
2022/07/12 11:20:57;;;;;;;;;;;29.10;99.90;;;;;;5008470;28;19929;-85
2022/07/12 11:23:24;;;;;;;;;;;29.20;99.90;;;;;;5009282;28;19930;-85
2022/07/12 11:25:50;;;;;;;;;;;29.60;99.90;;;;;;5006728;28;20024;-87
2022/07/12 11:28:18;;;;;;;;;;;29.40;99.90;;;;;;4988440;28;19940;-86
2022/07/12 11:30:50;;;;;;;;;;;29.70;99.90;;;;;;4988792;28;19941;-87
2022/07/12 11:33:16;;;;;;;;;;;29.70;99.90;;;;;;4972223;28;19933;-86
2022/07/12 11:35:43;;;;;;;;;;;29.60;99.90;;;;;;4997554;28;19929;-85
2022/07/12 11:38:09;;;;;;;;;;;29.30;99.90;;;;;;4976647;28;21435;-85
2022/07/12 11:40:34;;;;;;;;;;;29.10;99.90;;;;;;5004591;28;20068;-89
2022/07/12 11:43:01;;;;;;;;;;;29.30;99.90;;;;;;5006855;28;19939;-88
2022/07/12 11:45:30;;;;;;;;;;;29.00;99.90;;;;;;5020182;28;19939;-87
2022/07/12 11:47:57;;;;;;;;;;;29.00;99.90;;;;;;5003875;28;20987;-85
2022/07/12 11:50:23;;;;;;;;;;;29.00;99.90;;;;;;5002560;28;20381;-86
2022/07/12 11:52:49;;;;;;;;;;;28.90;99.90;;;;;;4992940;28;19928;-88
2022/07/12 11:55:15;;;;;;;;;;;28.90;99.90;;;;;;5007487;28;19929;-87
2022/07/12 11:57:41;;;;;;;;;;;29.10;99.90;;;;;;5003504;28;19929;-85
2022/07/12 12:00:20;;;;;;;;;;;29.10;99.90;;;;;;5005409;28;19964;-86
2022/07/12 12:02:51;;;;;;;;;;;29.50;99.90;;;;;;4979083;28;19928;-89
2022/07/12 12:05:17;;;;;;;;;;;29.80;99.90;;;;;;5007659;28;20377;-83
2022/07/12 12:07:55;;;;;;;;;;;30.10;99.90;;;;;;5012051;28;20296;-86
2022/07/12 12:10:21;;;;;;;;;;;30.10;99.90;;;;;;4990144;28;20016;-88
2022/07/12 12:12:48;;;;;;;;;;;29.50;99.90;;;;;;5010813;28;19933;-85
2022/07/12 12:15:18;;;;;;;;;;;29.70;99.90;;;;;;5012417;28;19929;-86
2022/07/12 12:17:46;;;;;;;;;;;29.60;99.90;;;;;;5011853;28;19994;-86
2022/07/12 12:20:16;;;;;;;;;;;29.60;99.90;;;;;;5001593;28;20719;-86
2022/07/12 12:22:43;;;;;;;;;;;29.80;99.90;;;;;;4979665;28;19932;-84
2022/07/12 12:25:13;;;;;;;;;;;29.90;99.90;;;;;;4999101;28;19973;-88
2022/07/12 12:27:49;;;;;;;;;;;29.60;99.90;;;;;;4992262;28;20712;-87
2022/07/12 12:30:20;;;;;;;;;;;29.60;99.90;;;;;;4999295;28;19980;-87
2022/07/12 12:32:46;;;;;;;;;;;29.60;99.90;;;;;;4993442;28;20468;-87
2022/07/12 12:35:15;;;;;;;;;;;29.70;99.90;;;;;;4996627;28;19929;-86
2022/07/12 12:37:48;;;;;;;;;;;30.00;99.90;;;;;;4990792;28;20852;-86
2022/07/12 12:40:18;;;;;;;;;;;30.30;99.90;;;;;;4993487;28;19929;-89
2022/07/12 12:42:43;;;;;;;;;;;30.20;99.90;;;;;;4996979;28;19929;-90
2022/07/12 12:45:16;;;;;;;;;;;30.00;99.90;;;;;;4972492;28;19940;-88
2022/07/12 12:47:52;;;;;;;;;;;29.80;99.90;;;;;;4978774;28;19929;-91
2022/07/12 12:50:34;;;;;;;;;;;30.20;99.90;;;;;;4980529;28;19968;-87
2022/07/12 12:53:05;;;;;;;;;;;30.30;99.90;;;;;;4995245;28;19982;-86
2022/07/12 12:55:34;;;;;;;;;;;30.30;99.90;;;;;;4993088;28;19982;-86
2022/07/12 12:58:01;;;;;;;;;;;30.60;99.90;;;;;;4979926;28;20370;-87
2022/07/12 13:00:29;;;;;;;;;;;30.50;99.90;;;;;;4986774;28;19933;-89
2022/07/12 13:02:58;;;;;;;;;;;30.10;99.90;;;;;;4995763;28;19937;-89
2022/07/12 13:05:24;;;;;;;;;;;30.10;99.90;;;;;;4996784;28;19933;-89
2022/07/12 13:07:50;;;;;;;;;;;29.50;99.90;;;;;;4997898;28;19937;-90
2022/07/12 13:10:16;;;;;;;;;;;30.10;99.90;;;;;;4990797;28;19929;-87
2022/07/12 13:12:42;;;;;;;;;;;30.50;99.90;;;;;;4982656;28;20094;-88
2022/07/12 13:15:08;;;;;;;;;;;30.60;99.90;;;;;;4999052;28;19976;-86
2022/07/12 13:17:33;;;;;;;;;;;30.90;99.90;;;;;;4997227;28;19975;-87
2022/07/12 13:19:59;;;;;;;;;;;30.70;99.90;;;;;;4961232;28;19979;-87
2022/07/12 13:22:25;;;;;;;;;;;30.60;99.50;;;;;;4997693;28;20921;-85
2022/07/12 13:24:57;;;;;;;;;;;30.50;99.90;;;;;;4994001;28;19982;-87
2022/07/12 13:27:22;;;;;;;;;;;30.70;99.90;;;;;;4993460;28;20595;-87
2022/07/12 13:29:48;;;;;;;;;;;30.40;99.90;;;;;;4994701;28;19933;-87
2022/07/12 13:32:14;;;;;;;;;;;30.50;99.90;;;;;;4985877;28;20603;-87
2022/07/12 13:34:40;;;;;;;;;;;30.60;99.90;;;;;;4993972;28;19983;-88
2022/07/12 13:37:06;;;;;;;;;;;30.50;99.90;;;;;;4990786;28;20031;-89
2022/07/12 13:42:16;;;;;;;;;;;31.20;99.90;;;;;;4992684;28;19956;-86
2022/07/12 13:44:44;;;;;;;;;;;30.70;99.90;;;;;;4987215;28;20429;-84
2022/07/12 13:47:10;;;;;;;;;;;30.80;99.90;;;;;;4996906;28;19933;-93
2022/07/12 13:49:36;;;;;;;;;;;30.60;99.90;;;;;;4992990;28;19983;-88
2022/07/12 13:52:02;;;;;;;;;;;30.20;99.90;;;;;;4991381;28;19929;-88
2022/07/12 13:54:28;;;;;;;;;;;30.40;99.90;;;;;;4990340;28;19968;-90
2022/07/12 13:56:53;;;;;;;;;;;29.90;99.90;;;;;;5000907;28;20012;-88
2022/07/12 13:59:19;;;;;;;;;;;30.00;99.90;;;;;;4988879;28;20233;-89
2022/07/12 14:01:46;;;;;;;;;;;29.90;99.90;;;;;;5009370;28;20011;-92
2022/07/12 14:04:11;;;;;;;;;;;29.70;99.90;;;;;;5010111;28;19988;-88
2022/07/12 14:06:37;;;;;;;;;;;29.80;99.90;;;;;;5005472;28;20469;-89
2022/07/12 14:09:03;;;;;;;;;;;29.70;99.90;;;;;;4991698;28;19933;-87
2022/07/12 14:11:51;;;;;;;;;;;29.80;99.90;;;;;;4993183;28;19929;-88
2022/07/12 14:14:33;;;;;;;;;;;29.50;99.90;;;;;;5007436;28;19936;-88
2022/07/12 14:16:59;;;;;;;;;;;29.50;99.90;;;;;;5009139;28;19979;-89
2022/07/12 14:19:25;;;;;;;;;;;29.40;99.90;;;;;;5006123;28;20685;-88
2022/07/12 14:21:51;;;;;;;;;;;29.20;99.90;;;;;;5003746;28;20052;-88
2022/07/12 14:24:16;;;;;;;;;;;29.40;99.90;;;;;;5000446;28;20014;-87
2022/07/12 14:26:42;;;;;;;;;;;29.60;99.90;;;;;;5014396;28;20839;-87
2022/07/12 14:29:07;;;;;;;;;;;29.60;99.90;;;;;;4999988;28;19933;-87
2022/07/12 14:31:36;;;;;;;;;;;29.80;99.90;;;;;;4999787;28;19929;-89